Time;durP1;ratioP1;P1;durP2;ratioP2;P2;SDS_P1;SDS_P2;PMS_P1;PMS_P2;Temp;Humidity;BMP_temperature;BMP_pressure;BME280_temperature;BME280_humidity;BME280_pressure;Samples;Min_cycle;Max_cycle;Signal;HPM_P1;HPM_P2
2022/10/31 00:10:54;;;;;;;;;;;;;;;;;;936641;27;20146;31
2022/10/31 00:51:33;;;;;;;;;;;;;;;;;;937496;27;21009;31
2022/10/31 00:52:07;;;;;;;;;;;;;;;;;;937332;27;20808;31
2022/10/31 01:00:22;;;;;;;;;;;;;;;;;;937489;27;20599;31
2022/10/31 01:07:04;;;;;;;;;;;;;;;;;;936796;27;19908;31
2022/10/31 01:07:40;;;;;;;;;;;;;;;;;;936855;27;19917;31
2022/10/31 01:17:42;;;;;;;;;;;;;;;;;;937041;27;19977;31
2022/10/31 01:18:13;;;;;;;;;;;;;;;;;;936832;27;19911;31
2022/10/31 01:18:46;;;;;;;;;;;;;;;;;;936544;27;21306;31
2022/10/31 01:19:23;;;;;;;;;;;;;;;;;;936838;27;20743;31
2022/10/31 01:33:16;;;;;;;;;;;;;;;;;;936805;27;19911;31
2022/10/31 01:33:49;;;;;;;;;;;;;;;;;;936858;27;19918;31
2022/10/31 01:38:52;;;;;;;;;;;;;;;;;;936830;27;19929;31
2022/10/31 01:39:24;;;;;;;;;;;;;;;;;;936802;27;19918;31
2022/10/31 01:52:19;;;;;;;;;;;;;;;;;;937072;27;20659;31
2022/10/31 02:26:47;;;;;;;;;;;;;;;;;;936910;27;19926;31
2022/10/31 02:28:29;;;;;;;;;;;;;;;;;;936833;27;19918;31
2022/10/31 03:00:19;;;;;;;;;;;;;;;;;;936756;27;20178;31
2022/10/31 03:03:07;;;;;;;;;;;;;;;;;;936814;27;20157;31
2022/10/31 03:46:11;;;;;;;;;;;;;;;;;;936945;27;20842;31
2022/10/31 04:16:24;;;;;;;;;;;;;;;;;;936420;27;20030;31
2022/10/31 04:17:00;;;;;;;;;;;;;;;;;;936812;27;20759;31
2022/10/31 04:17:36;;;;;;;;;;;;;;;;;;936513;27;19920;31
2022/10/31 04:37:36;;;;;;;;;;;;;;;;;;936519;27;19911;31
2022/10/31 04:43:54;;;;;;;;;;;;;;;;;;939672;27;20934;-79
2022/10/31 04:44:24;;;;;;;;;;;;;;;;;;941269;27;19903;-79
2022/10/31 04:44:55;;;;;;;;;;;;;;;;;;942105;27;19911;-76
2022/10/31 04:45:28;;;;;;;;;;;;;;;;;;941689;27;19907;-76
2022/10/31 04:45:59;;;;;;;;;;;;;;;;;;941468;27;19907;-76
2022/10/31 04:51:02;;;;;;;;;;;;;;;;;;942392;27;19903;-78
2022/10/31 04:58:57;;;;;;;;;;;;;;;;;;936890;27;20875;31
2022/10/31 05:00:41;;;;;;;;;;;;;;;;;;936479;27;19907;31
2022/10/31 05:06:23;;;;;;;;;;;;;;;;;;936463;27;20404;31
2022/10/31 05:22:38;;;;;;;;;;;;;;;;;;936524;27;20661;31
2022/10/31 05:23:23;;;;;;;;;;;;;;;;;;;;;
2022/10/31 05:25:40;;;;;;;;;;;;;;;;;;936814;27;20790;31
2022/10/31 05:32:59;;;;;;;;;;;;;;;;;;944728;27;19896;-88
2022/10/31 05:34:06;;;;;;;;;;;;;;;;;;944727;27;19910;-88
2022/10/31 05:38:57;;;;;;;;;;;;;;;;;;945247;27;19913;-89
2022/10/31 05:53:13;;;;;;;;;;;;;;;;;;936801;27;20150;31
2022/10/31 06:07:41;;;;;;;;;;;;;;;;;;937087;27;20802;31
2022/10/31 06:31:44;;;;;;;;;;;;;;;;;;936680;27;19907;31
2022/10/31 06:32:18;;;;;;;;;;;;;;;;;;937221;27;20375;31
2022/10/31 06:41:43;;;;;;;;;;;;;;;;;;936822;27;19917;31
2022/10/31 06:42:17;;;;;;;;;;;;;;;;;;936774;27;19911;31
2022/10/31 06:58:45;;;;;;;;;;;;;;;;;;936734;27;19911;31
2022/10/31 07:06:01;;;;;;;;;;;;;;;;;;936500;27;19912;31
2022/10/31 07:08:50;;;;;;;;;;;;;;;;;;936726;27;20166;31
2022/10/31 07:12:10;;;;;;;;;;;;;;;;;;937082;27;20769;31
2022/10/31 07:12:42;;;;;;;;;;;;;;;;;;936639;27;19907;31
2022/10/31 07:27:29;;;;;;;;;;;;;;;;;;937103;27;20924;31
2022/10/31 07:42:54;;;;;;;;;;;;;;;;;;936674;27;19911;31
2022/10/31 08:04:46;;;;;;;;;;;;;;;;;;936728;27;19908;31
2022/10/31 08:06:30;;;;;;;;;;;;;;;;;;936980;27;20676;31
2022/10/31 08:28:58;;;;;;;;;;;;;;;;;;937112;27;20908;31
2022/10/31 08:53:41;;;;;;;;;;;;;;;;;;936826;27;20623;31
2022/10/31 08:54:17;;;;;;;;;;;;;;;;;;936495;27;20345;31
2022/10/31 09:08:34;;;;;;;;;;;;;;;;;;936565;27;20215;31
2022/10/31 09:15:15;;;;;;;;;;;;;;;;;;937348;27;20648;31
2022/10/31 09:15:52;;;;;;;;;;;;;;;;;;938750;27;20135;31
2022/10/31 09:16:59;;;;;;;;;;;;;;;;;;941479;27;20835;-78
2022/10/31 09:36:17;;;;;;;;;;;;;;;;;;937181;27;20715;31
2022/10/31 09:49:47;;;;;;;;;;;;;;;;;;942541;27;19915;-77
2022/10/31 09:51:07;;;;;;;;;;;;;;;;;;936856;27;19907;31
2022/10/31 09:52:21;;;;;;;;;;;;;;;;;;937047;27;20078;31
2022/10/31 09:56:16;;;;;;;;;;;;;;;;;;936549;27;19911;31
2022/10/31 09:56:51;;;;;;;;;;;;;;;;;;936872;27;19907;31
2022/10/31 10:07:43;;;;;;;;;;;;;;;;;;937110;27;20714;31
2022/10/31 10:16:13;;;;;;;;;;;;;;;;;;944547;27;19902;-79
2022/10/31 10:19:01;;;;;;;;;;;;;;;;;;936904;27;20199;31
2022/10/31 10:48:52;;;;;;;;;;;;;;;;;;936974;27;20731;31
2022/10/31 11:23:28;;;;;;;;;;;;;;;;;;936766;27;20217;31
2022/10/31 11:25:50;;;;;;;;;;;;;;;;;;936711;27;20154;31
2022/10/31 11:27:35;;;;;;;;;;;;;;;;;;936681;27;19973;31
2022/10/31 11:34:47;;;;;;;;;;;;;;;;;;944366;27;19907;-79
2022/10/31 11:35:18;;;;;;;;;;;;;;;;;;943972;27;19910;-78
2022/10/31 11:35:52;;;;;;;;;;;;;;;;;;944496;27;19923;-79
2022/10/31 11:36:24;;;;;;;;;;;;;;;;;;944546;27;19927;-78
2022/10/31 11:37:05;;;;;;;;;;;;;;;;;;944575;27;20674;-81
2022/10/31 11:37:40;;;;;;;;;;;;;;;;;;944687;27;19910;-81
2022/10/31 11:38:15;;;;;;;;;;;;;;;;;;944471;27;19912;-81
2022/10/31 11:45:00;;;;;;;;;;;;;;;;;;936920;27;20076;31
2022/10/31 11:58:27;;;;;;;;;;;;;;;;;;936932;27;20013;31
2022/10/31 12:06:18;;;;;;;;;;;;;;;;;;936916;27;20993;31
2022/10/31 12:06:57;;;;;;;;;;;;;;;;;;936864;27;19907;31
2022/10/31 12:12:33;;;;;;;;;;;;;;;;;;936632;27;20157;31
2022/10/31 12:13:18;;;;;;;;;;;;;;;;;;936782;27;20224;31
2022/10/31 12:55:06;;;;;;;;;;;;;;;;;;936999;27;19926;31
2022/10/31 12:55:42;;;;;;;;;;;;;;;;;;937234;27;20132;31
2022/10/31 12:56:19;;;;;;;;;;;;;;;;;;937229;27;19915;31
2022/10/31 12:57:03;;;;;;;;;;;;;;;;;;937162;27;20208;31
2022/10/31 13:07:14;;;;;;;;;;;;;;;;;;937438;27;20798;31
2022/10/31 13:08:22;;;;;;;;;;;;;;;;;;940745;27;20154;-79
2022/10/31 13:11:18;;;;;;;;;;;;;;;;;;937109;27;19919;31
2022/10/31 13:11:54;;;;;;;;;;;;;;;;;;937174;27;20434;31
2022/10/31 13:12:33;;;;;;;;;;;;;;;;;;937327;27;20154;31
2022/10/31 13:17:16;;;;;;;;;;;;;;;;;;936924;27;20174;31
2022/10/31 13:17:52;;;;;;;;;;;;;;;;;;937028;27;20723;31
2022/10/31 14:12:38;;;;;;;;;;;;;;;;;;937141;27;19911;31
2022/10/31 14:22:07;;;;;;;;;;;;;;;;;;937073;27;20821;31
2022/10/31 14:22:44;;;;;;;;;;;;;;;;;;937122;27;20220;31
2022/10/31 14:23:37;;;;;;;;;;;;;;;;;;937083;27;20220;31
2022/10/31 14:30:26;;;;;;;;;;;;;;;;;;939119;27;19950;31
2022/10/31 14:33:48;;;;;;;;;;;;;;;;;;936894;27;19912;31
2022/10/31 14:34:25;;;;;;;;;;;;;;;;;;937167;27;19908;31
2022/10/31 14:35:01;;;;;;;;;;;;;;;;;;936979;27;19915;31
2022/10/31 15:25:47;;;;;;;;;;;;;;;;;;936897;27;20189;31
2022/10/31 15:29:16;;;;;;;;;;;;;;;;;;937034;27;19946;31
2022/10/31 15:30:27;;;;;;;;;;;;;;;;;;937042;27;19908;31
2022/10/31 15:41:37;;;;;;;;;;;;;;;;;;940385;27;19918;-80
2022/10/31 15:42:14;;;;;;;;;;;;;;;;;;937630;27;19895;31
2022/10/31 15:42:55;;;;;;;;;;;;;;;;;;937122;27;20009;31
2022/10/31 15:43:32;;;;;;;;;;;;;;;;;;936870;27;19907;31
2022/10/31 15:48:47;;;;;;;;;;;;;;;;;;939355;27;19911;-75
2022/10/31 16:18:43;;;;;;;;;;;;;;;;;;944177;27;19911;-79
2022/10/31 16:27:42;;;;;;;;;;;;;;;;;;936904;27;20187;31
2022/10/31 16:44:32;;;;;;;;;;;;;;;;;;936890;27;19907;31
2022/10/31 16:45:08;;;;;;;;;;;;;;;;;;936731;27;20841;31
2022/10/31 16:45:49;;;;;;;;;;;;;;;;;;936694;27;20160;31
2022/10/31 16:48:35;;;;;;;;;;;;;;;;;;936695;27;20783;31
2022/10/31 16:49:12;;;;;;;;;;;;;;;;;;936777;27;19918;31
2022/10/31 16:49:48;;;;;;;;;;;;;;;;;;936767;27;19907;31
2022/10/31 16:52:28;;;;;;;;;;;;;;;;;;943757;31;20254;-79
2022/10/31 16:52:59;;;;;;;;;;;;;;;;;;945517;27;19895;-77
2022/10/31 16:53:31;;;;;;;;;;;;;;;;;;946615;27;20354;-77
2022/10/31 16:54:04;;;;;;;;;;;;;;;;;;946130;27;19907;-76
2022/10/31 16:54:35;;;;;;;;;;;;;;;;;;946986;27;20214;-79
2022/10/31 16:55:09;;;;;;;;;;;;;;;;;;946320;27;19911;-78
2022/10/31 16:55:41;;;;;;;;;;;;;;;;;;946713;27;20204;-79
2022/10/31 16:56:17;;;;;;;;;;;;;;;;;;946715;27;19953;-77
2022/10/31 16:56:48;;;;;;;;;;;;;;;;;;946435;27;20013;-81
2022/10/31 16:57:22;;;;;;;;;;;;;;;;;;946558;27;19940;-76
2022/10/31 16:57:57;;;;;;;;;;;;;;;;;;946354;27;19906;-78
2022/10/31 16:58:29;;;;;;;;;;;;;;;;;;946473;27;19906;-77
2022/10/31 16:59:03;;;;;;;;;;;;;;;;;;946997;27;19907;-78
2022/10/31 16:59:34;;;;;;;;;;;;;;;;;;946300;27;19920;-77
2022/10/31 17:00:05;;;;;;;;;;;;;;;;;;946733;27;19900;-79
2022/10/31 17:00:39;;;;;;;;;;;;;;;;;;946404;27;20149;-79
2022/10/31 17:01:11;;;;;;;;;;;;;;;;;;946356;27;20286;-75
2022/10/31 17:01:51;;;;;;;;;;;;;;;;;;946044;27;19918;-77
2022/10/31 17:02:22;;;;;;;;;;;;;;;;;;946390;27;19895;-78
2022/10/31 17:02:56;;;;;;;;;;;;;;;;;;946291;27;19907;-79
2022/10/31 17:03:27;;;;;;;;;;;;;;;;;;946230;27;19972;-80
2022/10/31 17:03:57;;;;;;;;;;;;;;;;;;946475;27;19940;-76
2022/10/31 17:04:31;;;;;;;;;;;;;;;;;;945717;27;20188;-77
2022/10/31 17:05:01;;;;;;;;;;;;;;;;;;946431;27;19907;-77
2022/10/31 17:05:32;;;;;;;;;;;;;;;;;;946347;27;19907;-76
2022/10/31 17:06:05;;;;;;;;;;;;;;;;;;946217;27;19936;-78
2022/10/31 17:06:36;;;;;;;;;;;;;;;;;;946846;27;19945;-79
2022/10/31 17:07:07;;;;;;;;;;;;;;;;;;946591;27;19915;-78
2022/10/31 17:07:43;;;;;;;;;;;;;;;;;;945057;27;19907;-78
2022/10/31 17:08:14;;;;;;;;;;;;;;;;;;945857;27;19907;-80
2022/10/31 17:08:47;;;;;;;;;;;;;;;;;;946308;27;19907;-79
2022/10/31 17:09:18;;;;;;;;;;;;;;;;;;945988;27;20241;-78
2022/10/31 17:09:49;;;;;;;;;;;;;;;;;;945820;27;19907;-79
2022/10/31 17:10:22;;;;;;;;;;;;;;;;;;946954;27;19908;-77
2022/10/31 17:10:54;;;;;;;;;;;;;;;;;;946808;27;19895;-79
2022/10/31 17:11:25;;;;;;;;;;;;;;;;;;945563;27;19914;-77
2022/10/31 17:11:59;;;;;;;;;;;;;;;;;;945927;27;19900;-77
2022/10/31 17:12:29;;;;;;;;;;;;;;;;;;946498;27;19907;-78
2022/10/31 17:13:02;;;;;;;;;;;;;;;;;;946319;27;19908;-77
2022/10/31 17:13:36;;;;;;;;;;;;;;;;;;946134;27;20221;-77
2022/10/31 17:14:08;;;;;;;;;;;;;;;;;;946213;27;20205;-76
2022/10/31 17:14:39;;;;;;;;;;;;;;;;;;946563;27;19900;-77
2022/10/31 17:15:17;;;;;;;;;;;;;;;;;;946588;27;19907;-76
2022/10/31 17:15:50;;;;;;;;;;;;;;;;;;946910;27;19907;-79
2022/10/31 17:16:23;;;;;;;;;;;;;;;;;;946545;27;19907;-77
2022/10/31 17:16:54;;;;;;;;;;;;;;;;;;946115;27;19900;-78
2022/10/31 17:17:25;;;;;;;;;;;;;;;;;;946485;27;19903;-76
2022/10/31 17:17:58;;;;;;;;;;;;;;;;;;946064;27;19943;-77
2022/10/31 17:18:29;;;;;;;;;;;;;;;;;;946012;27;20224;-77
2022/10/31 17:19:03;;;;;;;;;;;;;;;;;;946421;27;19906;-77
2022/10/31 17:19:33;;;;;;;;;;;;;;;;;;945971;27;19906;-81
2022/10/31 17:20:14;;;;;;;;;;;;;;;;;;946357;27;19899;-76
2022/10/31 17:20:48;;;;;;;;;;;;;;;;;;946039;27;19899;-76
2022/10/31 17:21:21;;;;;;;;;;;;;;;;;;945764;27;19905;-77
2022/10/31 17:21:52;;;;;;;;;;;;;;;;;;946730;27;20257;-77
2022/10/31 17:22:25;;;;;;;;;;;;;;;;;;946255;27;19929;-78
2022/10/31 17:22:59;;;;;;;;;;;;;;;;;;946520;27;19906;-77
2022/10/31 17:23:33;;;;;;;;;;;;;;;;;;946520;27;19907;-77
2022/10/31 17:24:04;;;;;;;;;;;;;;;;;;946559;27;19909;-78
2022/10/31 17:24:35;;;;;;;;;;;;;;;;;;946378;27;19900;-77
2022/10/31 17:25:10;;;;;;;;;;;;;;;;;;945362;27;19908;-77
2022/10/31 17:25:41;;;;;;;;;;;;;;;;;;945243;27;19904;-76
2022/10/31 17:26:12;;;;;;;;;;;;;;;;;;945619;27;19908;-77
2022/10/31 17:26:46;;;;;;;;;;;;;;;;;;946161;27;19911;-80
2022/10/31 17:27:17;;;;;;;;;;;;;;;;;;946827;27;20320;-76
2022/10/31 17:27:48;;;;;;;;;;;;;;;;;;946255;27;20202;-76
2022/10/31 17:28:21;;;;;;;;;;;;;;;;;;945923;27;19949;-77
2022/10/31 17:28:52;;;;;;;;;;;;;;;;;;946123;27;20278;-77
2022/10/31 17:29:25;;;;;;;;;;;;;;;;;;946514;27;19903;-79
2022/10/31 17:29:56;;;;;;;;;;;;;;;;;;946857;27;19907;-78
2022/10/31 17:30:27;;;;;;;;;;;;;;;;;;946472;27;19899;-77
2022/10/31 17:31:00;;;;;;;;;;;;;;;;;;945677;27;20151;-78
2022/10/31 17:31:33;;;;;;;;;;;;;;;;;;945615;27;19905;-76
2022/10/31 17:32:06;;;;;;;;;;;;;;;;;;946610;27;20178;-80
2022/10/31 17:32:37;;;;;;;;;;;;;;;;;;946285;27;20205;-76
2022/10/31 17:33:13;;;;;;;;;;;;;;;;;;946488;27;19918;-77
2022/10/31 17:33:43;;;;;;;;;;;;;;;;;;945612;27;19915;-76
2022/10/31 17:34:14;;;;;;;;;;;;;;;;;;945991;27;19910;-79
2022/10/31 17:34:47;;;;;;;;;;;;;;;;;;946365;27;19899;-80
2022/10/31 17:35:18;;;;;;;;;;;;;;;;;;946134;27;20115;-81
2022/10/31 17:35:49;;;;;;;;;;;;;;;;;;944692;27;19918;-79
2022/10/31 17:36:22;;;;;;;;;;;;;;;;;;944139;27;19952;-81
2022/10/31 17:36:53;;;;;;;;;;;;;;;;;;944793;27;19907;-81
2022/10/31 17:37:23;;;;;;;;;;;;;;;;;;945309;27;19900;-78
2022/10/31 17:37:57;;;;;;;;;;;;;;;;;;945392;27;19930;-81
2022/10/31 17:38:30;;;;;;;;;;;;;;;;;;945276;27;19919;-82
2022/10/31 17:39:02;;;;;;;;;;;;;;;;;;946428;27;19899;-83
2022/10/31 17:39:35;;;;;;;;;;;;;;;;;;947087;27;19918;-81
2022/10/31 17:40:06;;;;;;;;;;;;;;;;;;946534;27;19896;-80
2022/10/31 17:40:38;;;;;;;;;;;;;;;;;;946094;27;19952;-79
2022/10/31 17:41:11;;;;;;;;;;;;;;;;;;946596;27;19899;-81
2022/10/31 17:41:42;;;;;;;;;;;;;;;;;;946411;27;20344;-82
2022/10/31 17:42:13;;;;;;;;;;;;;;;;;;946675;27;19957;-76
2022/10/31 17:42:50;;;;;;;;;;;;;;;;;;946401;27;19940;-77
2022/10/31 17:43:25;;;;;;;;;;;;;;;;;;944217;27;19918;-78
2022/10/31 17:43:56;;;;;;;;;;;;;;;;;;944161;27;19915;-77
2022/10/31 17:44:29;;;;;;;;;;;;;;;;;;943841;27;19899;-77
2022/10/31 17:45:00;;;;;;;;;;;;;;;;;;945346;27;19915;-78
2022/10/31 17:45:34;;;;;;;;;;;;;;;;;;944624;27;19953;-78
2022/10/31 17:46:04;;;;;;;;;;;;;;;;;;944514;27;19907;-77
2022/10/31 17:46:35;;;;;;;;;;;;;;;;;;944213;27;19911;-81
2022/10/31 17:47:09;;;;;;;;;;;;;;;;;;946574;27;19960;-76
2022/10/31 17:47:39;;;;;;;;;;;;;;;;;;944002;27;19902;-77
2022/10/31 17:48:11;;;;;;;;;;;;;;;;;;944321;27;20247;-80
2022/10/31 17:48:44;;;;;;;;;;;;;;;;;;944762;27;20121;-78
2022/10/31 17:49:14;;;;;;;;;;;;;;;;;;944448;27;20213;-78
2022/10/31 17:49:45;;;;;;;;;;;;;;;;;;945600;27;19899;-79
2022/10/31 17:50:18;;;;;;;;;;;;;;;;;;944664;27;19903;-78
2022/10/31 17:50:49;;;;;;;;;;;;;;;;;;944956;27;20217;-78
2022/10/31 17:51:22;;;;;;;;;;;;;;;;;;944700;27;19899;-77
2022/10/31 17:51:53;;;;;;;;;;;;;;;;;;945655;27;19907;-79
2022/10/31 17:52:24;;;;;;;;;;;;;;;;;;944468;27;19915;-78
2022/10/31 17:52:59;;;;;;;;;;;;;;;;;;945210;27;19950;-77
2022/10/31 17:53:33;;;;;;;;;;;;;;;;;;944098;27;19918;-78
2022/10/31 17:54:05;;;;;;;;;;;;;;;;;;944675;27;19969;-79
2022/10/31 17:54:39;;;;;;;;;;;;;;;;;;945838;27;19927;-78
2022/10/31 17:55:10;;;;;;;;;;;;;;;;;;946263;27;19908;-81
2022/10/31 17:55:40;;;;;;;;;;;;;;;;;;945750;27;19903;-77
2022/10/31 17:56:14;;;;;;;;;;;;;;;;;;946150;27;19907;-78
2022/10/31 17:56:44;;;;;;;;;;;;;;;;;;945889;27;19907;-78
2022/10/31 17:57:15;;;;;;;;;;;;;;;;;;946434;27;20195;-78
2022/10/31 17:57:48;;;;;;;;;;;;;;;;;;946916;27;20288;-78
2022/10/31 17:58:19;;;;;;;;;;;;;;;;;;946404;27;20318;-78
2022/10/31 17:58:49;;;;;;;;;;;;;;;;;;946606;27;19906;-79
2022/10/31 17:59:23;;;;;;;;;;;;;;;;;;946570;27;19942;-77
2022/10/31 17:59:53;;;;;;;;;;;;;;;;;;946713;27;19926;-78
2022/10/31 18:00:57;;;;;;;;;;;;;;;;;;946410;27;20117;-79
2022/10/31 18:01:27;;;;;;;;;;;;;;;;;;946281;27;19895;-77
2022/10/31 18:01:59;;;;;;;;;;;;;;;;;;945702;27;19911;-78
2022/10/31 18:02:32;;;;;;;;;;;;;;;;;;945742;27;19907;-79
2022/10/31 18:03:03;;;;;;;;;;;;;;;;;;946583;27;19899;-78
2022/10/31 18:03:33;;;;;;;;;;;;;;;;;;944387;27;19950;-80
2022/10/31 18:04:07;;;;;;;;;;;;;;;;;;944453;27;19904;-78
2022/10/31 18:04:39;;;;;;;;;;;;;;;;;;944172;27;19900;-79
2022/10/31 18:05:10;;;;;;;;;;;;;;;;;;944479;27;19899;-78
2022/10/31 18:05:52;;;;;;;;;;;;;;;;;;944644;27;19966;-77
2022/10/31 18:06:24;;;;;;;;;;;;;;;;;;943777;27;20429;-78
2022/10/31 18:06:58;;;;;;;;;;;;;;;;;;944631;27;19907;-78
2022/10/31 18:07:28;;;;;;;;;;;;;;;;;;943955;27;20230;-78
2022/10/31 18:07:59;;;;;;;;;;;;;;;;;;944786;27;19899;-78
2022/10/31 18:08:36;;;;;;;;;;;;;;;;;;944450;27;19927;-78
2022/10/31 18:09:07;;;;;;;;;;;;;;;;;;943608;27;19908;-77
2022/10/31 18:09:38;;;;;;;;;;;;;;;;;;942260;27;19907;-78
2022/10/31 18:10:12;;;;;;;;;;;;;;;;;;941852;27;19915;-77
2022/10/31 18:10:42;;;;;;;;;;;;;;;;;;942753;27;19915;-79
2022/10/31 18:11:18;;;;;;;;;;;;;;;;;;943614;27;20141;-78
2022/10/31 18:11:54;;;;;;;;;;;;;;;;;;944180;27;20175;-78
2022/10/31 18:12:25;;;;;;;;;;;;;;;;;;943133;27;19895;-78
2022/10/31 18:12:56;;;;;;;;;;;;;;;;;;942463;27;19907;-78
2022/10/31 18:13:30;;;;;;;;;;;;;;;;;;944572;27;19896;-77
2022/10/31 18:14:00;;;;;;;;;;;;;;;;;;943849;27;19917;-78
2022/10/31 18:14:32;;;;;;;;;;;;;;;;;;943598;27;19919;-81
2022/10/31 18:15:06;;;;;;;;;;;;;;;;;;944206;27;19904;-79
2022/10/31 18:15:38;;;;;;;;;;;;;;;;;;943991;27;19914;-81
2022/10/31 18:16:09;;;;;;;;;;;;;;;;;;944459;27;19942;-78
2022/10/31 18:16:42;;;;;;;;;;;;;;;;;;943416;27;19899;-77
2022/10/31 18:17:20;;;;;;;;;;;;;;;;;;943673;27;19900;-77
2022/10/31 18:17:54;;;;;;;;;;;;;;;;;;944137;27;19900;-78
2022/10/31 18:18:24;;;;;;;;;;;;;;;;;;944285;27;19907;-77
2022/10/31 18:18:58;;;;;;;;;;;;;;;;;;943024;27;19973;-80
2022/10/31 18:19:31;;;;;;;;;;;;;;;;;;944613;27;19908;-79
2022/10/31 18:20:02;;;;;;;;;;;;;;;;;;942893;27;19917;-78
2022/10/31 18:20:32;;;;;;;;;;;;;;;;;;943433;27;19902;-79
2022/10/31 18:21:06;;;;;;;;;;;;;;;;;;943740;27;19932;-77
2022/10/31 18:21:37;;;;;;;;;;;;;;;;;;943578;27;19907;-78
2022/10/31 18:22:13;;;;;;;;;;;;;;;;;;944714;27;19896;-80
2022/10/31 18:22:43;;;;;;;;;;;;;;;;;;943914;27;19906;-78
2022/10/31 18:23:14;;;;;;;;;;;;;;;;;;943405;27;19918;-78
2022/10/31 18:23:54;;;;;;;;;;;;;;;;;;943710;27;20284;-78
2022/10/31 18:24:27;;;;;;;;;;;;;;;;;;943630;27;20192;-78
2022/10/31 18:25:00;;;;;;;;;;;;;;;;;;944678;27;19907;-78
2022/10/31 18:25:31;;;;;;;;;;;;;;;;;;944352;27;19905;-78
2022/10/31 18:26:01;;;;;;;;;;;;;;;;;;944781;27;19919;-77
2022/10/31 18:26:35;;;;;;;;;;;;;;;;;;944875;27;19895;-78
2022/10/31 18:27:06;;;;;;;;;;;;;;;;;;944972;27;19899;-80
2022/10/31 18:27:36;;;;;;;;;;;;;;;;;;944819;27;19908;-78
2022/10/31 18:28:09;;;;;;;;;;;;;;;;;;944942;27;19899;-79
2022/10/31 18:28:40;;;;;;;;;;;;;;;;;;944809;27;19899;-78
2022/10/31 18:29:11;;;;;;;;;;;;;;;;;;944793;27;20231;-80
2022/10/31 18:29:44;;;;;;;;;;;;;;;;;;944816;27;19895;-80
2022/10/31 18:30:17;;;;;;;;;;;;;;;;;;944118;27;19900;-79
2022/10/31 18:30:48;;;;;;;;;;;;;;;;;;944035;27;19900;-78
2022/10/31 18:31:21;;;;;;;;;;;;;;;;;;944095;27;19895;-79
2022/10/31 18:31:53;;;;;;;;;;;;;;;;;;944053;27;19903;-79
2022/10/31 18:32:26;;;;;;;;;;;;;;;;;;943408;27;20157;-78
2022/10/31 18:32:57;;;;;;;;;;;;;;;;;;943846;27;19921;-80
2022/10/31 18:33:27;;;;;;;;;;;;;;;;;;944196;27;19903;-78
2022/10/31 18:34:01;;;;;;;;;;;;;;;;;;944443;27;19921;-80
2022/10/31 18:34:31;;;;;;;;;;;;;;;;;;944683;27;19899;-79
2022/10/31 18:35:02;;;;;;;;;;;;;;;;;;943704;27;19899;-78
2022/10/31 18:35:37;;;;;;;;;;;;;;;;;;944086;27;19930;-79
2022/10/31 18:36:08;;;;;;;;;;;;;;;;;;944225;27;19906;-79
2022/10/31 18:36:42;;;;;;;;;;;;;;;;;;943709;27;20248;-78
2022/10/31 18:37:12;;;;;;;;;;;;;;;;;;944331;27;19899;-79
2022/10/31 18:37:43;;;;;;;;;;;;;;;;;;944297;27;19903;-78
2022/10/31 18:38:16;;;;;;;;;;;;;;;;;;944046;27;19923;-79
2022/10/31 18:38:49;;;;;;;;;;;;;;;;;;943463;27;19902;-79
2022/10/31 18:39:20;;;;;;;;;;;;;;;;;;943672;27;19908;-79
2022/10/31 18:39:53;;;;;;;;;;;;;;;;;;944677;27;20236;-78
2022/10/31 18:40:24;;;;;;;;;;;;;;;;;;943094;27;19899;-78
2022/10/31 18:40:55;;;;;;;;;;;;;;;;;;943131;27;19919;-78
2022/10/31 18:41:29;;;;;;;;;;;;;;;;;;943859;27;20201;-79
2022/10/31 18:42:00;;;;;;;;;;;;;;;;;;944207;27;20188;-79
2022/10/31 18:43:03;;;;;;;;;;;;;;;;;;943878;27;19924;-77
2022/10/31 18:43:36;;;;;;;;;;;;;;;;;;943520;27;20268;-78
2022/10/31 18:44:07;;;;;;;;;;;;;;;;;;944172;27;21078;-80
2022/10/31 18:44:44;;;;;;;;;;;;;;;;;;943314;27;20189;-78
2022/10/31 18:45:15;;;;;;;;;;;;;;;;;;943915;27;19899;-78
2022/10/31 18:45:48;;;;;;;;;;;;;;;;;;944094;27;19895;-78
2022/10/31 18:46:20;;;;;;;;;;;;;;;;;;944117;27;20414;-78
2022/10/31 18:46:50;;;;;;;;;;;;;;;;;;943013;27;19932;-78
2022/10/31 18:47:23;;;;;;;;;;;;;;;;;;943257;27;19908;-79
2022/10/31 18:47:54;;;;;;;;;;;;;;;;;;943168;27;19907;-79
2022/10/31 18:48:27;;;;;;;;;;;;;;;;;;944087;27;20284;-79
2022/10/31 18:49:00;;;;;;;;;;;;;;;;;;943697;27;19926;-78
2022/10/31 18:49:32;;;;;;;;;;;;;;;;;;943875;27;20202;-78
2022/10/31 18:50:03;;;;;;;;;;;;;;;;;;943630;27;19910;-78
2022/10/31 18:51:10;;;;;;;;;;;;;;;;;;944077;27;19918;-78
2022/10/31 18:51:41;;;;;;;;;;;;;;;;;;944212;27;19907;-79
2022/10/31 18:52:11;;;;;;;;;;;;;;;;;;944862;27;20248;-78
2022/10/31 18:52:44;;;;;;;;;;;;;;;;;;944325;27;19903;-78
2022/10/31 18:53:15;;;;;;;;;;;;;;;;;;943547;27;19900;-79
2022/10/31 18:53:52;;;;;;;;;;;;;;;;;;943555;27;19903;-78
2022/10/31 18:54:26;;;;;;;;;;;;;;;;;;942332;27;20021;-77
2022/10/31 18:54:56;;;;;;;;;;;;;;;;;;943750;27;19906;-76
2022/10/31 18:55:27;;;;;;;;;;;;;;;;;;943104;28;19919;-78
2022/10/31 18:56:00;;;;;;;;;;;;;;;;;;943426;27;19899;-79
2022/10/31 18:56:31;;;;;;;;;;;;;;;;;;943919;27;19911;-78
2022/10/31 18:57:04;;;;;;;;;;;;;;;;;;943019;27;19943;-79
2022/10/31 18:57:35;;;;;;;;;;;;;;;;;;944012;27;20104;-77
2022/10/31 18:58:06;;;;;;;;;;;;;;;;;;943677;27;19900;-78
2022/10/31 18:58:39;;;;;;;;;;;;;;;;;;943339;27;20148;-78
2022/10/31 18:59:10;;;;;;;;;;;;;;;;;;942483;27;19907;-77
2022/10/31 18:59:41;;;;;;;;;;;;;;;;;;943903;27;19900;-79
2022/10/31 19:00:16;;;;;;;;;;;;;;;;;;942752;27;19912;-78
2022/10/31 19:00:47;;;;;;;;;;;;;;;;;;943441;27;19904;-77
2022/10/31 19:01:18;;;;;;;;;;;;;;;;;;942621;27;19903;-79
2022/10/31 19:01:52;;;;;;;;;;;;;;;;;;944015;27;20370;-77
2022/10/31 19:02:22;;;;;;;;;;;;;;;;;;943337;27;19915;-79
2022/10/31 19:02:53;;;;;;;;;;;;;;;;;;943691;27;19900;-81
2022/10/31 19:03:23;;;;;;;;;;;;;;;;;;942471;27;19908;-78
2022/10/31 19:03:58;;;;;;;;;;;;;;;;;;943066;27;19909;-80
2022/10/31 19:04:29;;;;;;;;;;;;;;;;;;943286;27;19919;-79
2022/10/31 19:04:59;;;;;;;;;;;;;;;;;;943668;27;19915;-79
2022/10/31 19:05:33;;;;;;;;;;;;;;;;;;944031;27;19926;-79
2022/10/31 19:06:04;;;;;;;;;;;;;;;;;;943051;27;19927;-79
2022/10/31 19:06:37;;;;;;;;;;;;;;;;;;944215;27;19972;-79
2022/10/31 19:07:08;;;;;;;;;;;;;;;;;;943832;27;19907;-79
2022/10/31 19:07:38;;;;;;;;;;;;;;;;;;943179;27;19950;-78
2022/10/31 19:08:12;;;;;;;;;;;;;;;;;;942745;27;20152;-80
2022/10/31 19:08:43;;;;;;;;;;;;;;;;;;944076;27;19899;-79
2022/10/31 19:09:18;;;;;;;;;;;;;;;;;;944372;27;19911;-79
2022/10/31 19:09:49;;;;;;;;;;;;;;;;;;944076;27;20187;-78
2022/10/31 19:10:20;;;;;;;;;;;;;;;;;;943250;27;19896;-78
2022/10/31 19:10:53;;;;;;;;;;;;;;;;;;942257;27;19896;-80
2022/10/31 19:11:24;;;;;;;;;;;;;;;;;;942116;27;19915;-76
2022/10/31 19:11:57;;;;;;;;;;;;;;;;;;943845;27;19900;-79
2022/10/31 19:12:30;;;;;;;;;;;;;;;;;;942744;27;19907;-77
2022/10/31 19:13:00;;;;;;;;;;;;;;;;;;942731;27;19895;-78
2022/10/31 19:13:34;;;;;;;;;;;;;;;;;;944122;27;20735;-79
2022/10/31 19:14:07;;;;;;;;;;;;;;;;;;943274;27;19900;-78
2022/10/31 19:14:40;;;;;;;;;;;;;;;;;;943498;27;20206;-77
2022/10/31 19:15:10;;;;;;;;;;;;;;;;;;942867;27;19900;-80
2022/10/31 19:15:42;;;;;;;;;;;;;;;;;;942808;27;19907;-79
2022/10/31 19:16:16;;;;;;;;;;;;;;;;;;943448;27;19967;-77
2022/10/31 19:16:47;;;;;;;;;;;;;;;;;;943705;27;20140;-77
2022/10/31 19:17:17;;;;;;;;;;;;;;;;;;941739;27;19903;-79
2022/10/31 19:17:51;;;;;;;;;;;;;;;;;;943097;27;19907;-78
2022/10/31 19:18:21;;;;;;;;;;;;;;;;;;943712;27;19915;-79
2022/10/31 19:18:52;;;;;;;;;;;;;;;;;;943999;27;19903;-81
2022/10/31 19:19:26;;;;;;;;;;;;;;;;;;942833;27;19900;-78
2022/10/31 19:19:56;;;;;;;;;;;;;;;;;;943901;27;19899;-79
2022/10/31 19:20:29;;;;;;;;;;;;;;;;;;943921;27;20157;-78
2022/10/31 19:21:03;;;;;;;;;;;;;;;;;;943435;27;19908;-81
2022/10/31 19:21:34;;;;;;;;;;;;;;;;;;942483;27;20260;-77
2022/10/31 19:22:07;;;;;;;;;;;;;;;;;;943647;27;19923;-80
2022/10/31 19:22:38;;;;;;;;;;;;;;;;;;942446;27;19903;-79
2022/10/31 19:23:09;;;;;;;;;;;;;;;;;;943290;27;20220;-81
2022/10/31 19:23:42;;;;;;;;;;;;;;;;;;943277;27;19907;-77
2022/10/31 19:24:13;;;;;;;;;;;;;;;;;;943695;27;19903;-81
2022/10/31 19:24:49;;;;;;;;;;;;;;;;;;944026;27;19907;-78
2022/10/31 19:25:19;;;;;;;;;;;;;;;;;;943341;27;19906;-78
2022/10/31 19:25:50;;;;;;;;;;;;;;;;;;943050;27;19914;-78
2022/10/31 19:26:23;;;;;;;;;;;;;;;;;;942736;27;20256;-79
2022/10/31 19:26:54;;;;;;;;;;;;;;;;;;943127;27;20265;-77
2022/10/31 19:27:26;;;;;;;;;;;;;;;;;;943194;27;19899;-77
2022/10/31 19:28:00;;;;;;;;;;;;;;;;;;943402;27;19895;-78
2022/10/31 19:28:31;;;;;;;;;;;;;;;;;;943037;27;19914;-79
2022/10/31 19:29:02;;;;;;;;;;;;;;;;;;942580;27;19900;-78
2022/10/31 19:29:35;;;;;;;;;;;;;;;;;;943693;27;19899;-78
2022/10/31 19:30:06;;;;;;;;;;;;;;;;;;943100;27;19921;-79
2022/10/31 19:30:37;;;;;;;;;;;;;;;;;;942761;27;20688;-78
2022/10/31 19:31:11;;;;;;;;;;;;;;;;;;943692;27;19923;-78
2022/10/31 19:31:41;;;;;;;;;;;;;;;;;;943088;27;19899;-78
2022/10/31 19:32:15;;;;;;;;;;;;;;;;;;943574;27;20597;-79
2022/10/31 19:32:45;;;;;;;;;;;;;;;;;;942627;27;19907;-78
2022/10/31 19:33:16;;;;;;;;;;;;;;;;;;942190;27;19907;-77